createdAt,value
2023-09-07T00:01:35.151Z,13.23
2023-09-07T00:03:43.466Z,13.82
2023-09-07T00:05:49.562Z,16.38
2023-09-07T00:07:57.265Z,14.35
2023-09-07T00:10:03.548Z,13.93
2023-09-07T00:12:09.560Z,13.07
2023-09-07T00:14:17.372Z,14.95
2023-09-07T00:16:27.832Z,15.27
2023-09-07T00:18:33.782Z,13.02
2023-09-07T00:20:41.880Z,14.10
2023-09-07T00:22:47.215Z,14.75
2023-09-07T00:24:52.558Z,13.05
2023-09-07T00:26:59.223Z,13.95
2023-09-07T00:29:04.294Z,14.52
2023-09-07T00:31:09.529Z,12.73
2023-09-07T00:33:17.120Z,14.57
2023-09-07T00:35:22.537Z,12.02
2023-09-07T00:37:30.694Z,12.55
2023-09-07T00:39:35.798Z,12.98
2023-09-07T00:41:40.902Z,13.63
2023-09-07T00:43:48.916Z,13.00
2023-09-07T00:45:59.034Z,11.95
2023-09-07T00:48:04.562Z,12.88
2023-09-07T00:50:15.155Z,13.13
2023-09-07T00:52:25.602Z,14.27
2023-09-07T00:54:28.312Z,11.55
2023-09-07T00:56:35.710Z,12.65
2023-09-07T00:58:41.883Z,12.68
2023-09-07T01:00:47.595Z,12.13
2023-09-07T01:02:50.297Z,10.10
2023-09-07T01:04:56.258Z,10.80
2023-09-07T01:07:12.236Z,11.27
2023-09-07T01:09:20.737Z,10.00
2023-09-07T01:11:26.103Z,11.73
2023-09-07T01:13:31.627Z,12.32
2023-09-07T01:15:36.816Z,10.73
2023-09-07T01:17:45.264Z,11.23
2023-09-07T01:19:50.909Z,10.32
2023-09-07T01:22:02.606Z,10.98
2023-09-07T01:24:10.465Z,10.63
2023-09-07T01:26:16.367Z,11.45
2023-09-07T01:28:23.222Z,12.05
2023-09-07T01:30:35.136Z,11.25
2023-09-07T01:32:43.904Z,11.23
2023-09-07T01:34:49.485Z,10.68
2023-09-07T01:36:57.072Z,10.10
2023-09-07T01:39:05.305Z,10.45
2023-09-07T01:41:10.525Z,10.75
2023-09-07T01:43:15.921Z,10.30
2023-09-07T01:45:21.261Z,9.98
2023-09-07T01:47:26.361Z,9.85
2023-09-07T01:49:32.787Z,10.48
2023-09-07T01:51:38.417Z,9.77
2023-09-07T01:53:43.840Z,10.20
2023-09-07T01:55:52.635Z,9.38
2023-09-07T01:58:02.415Z,10.27
2023-09-07T02:00:09.564Z,10.38
2023-09-07T02:02:15.001Z,9.75
2023-09-07T02:04:20.202Z,9.98
2023-09-07T02:06:27.917Z,10.32
2023-09-07T02:08:33.062Z,10.57
2023-09-07T02:10:38.676Z,10.60
2023-09-07T02:12:49.475Z,10.25
2023-09-07T02:14:57.052Z,11.10
2023-09-07T02:17:02.181Z,10.10
2023-09-07T02:19:08.401Z,9.95
2023-09-07T02:21:14.518Z,9.77
2023-09-07T02:23:22.572Z,10.07
2023-09-07T02:25:29.044Z,9.70
2023-09-07T02:27:31.814Z,10.80
2023-09-07T02:31:42.885Z,11.02
2023-09-07T02:33:47.917Z,10.63
2023-09-07T02:35:56.262Z,11.70
2023-09-07T02:38:01.931Z,11.32
2023-09-07T02:40:09.044Z,11.65
2023-09-07T02:42:13.998Z,11.45
2023-09-07T02:44:20.068Z,12.40
2023-09-07T02:46:28.816Z,11.30
2023-09-07T02:48:34.231Z,11.85
2023-09-07T02:50:37.218Z,11.68
2023-09-07T02:52:43.843Z,11.35
2023-09-07T02:54:49.279Z,12.00
2023-09-07T02:56:57.400Z,12.10
2023-09-07T02:59:05.423Z,11.43
2023-09-07T03:01:12.184Z,10.02
2023-09-07T03:03:20.018Z,11.27
2023-09-07T03:05:27.495Z,12.40
2023-09-07T03:07:40.674Z,11.23
2023-09-07T03:09:48.956Z,12.10
2023-09-07T03:11:52.622Z,12.48
2023-09-07T03:13:59.833Z,12.27
2023-09-07T03:16:04.048Z,11.32
2023-09-07T03:18:12.177Z,12.65
2023-09-07T03:20:18.624Z,11.38
2023-09-07T03:22:23.892Z,10.85
2023-09-07T03:24:31.964Z,10.75
2023-09-07T03:26:37.196Z,10.43
2023-09-07T03:28:42.534Z,11.85
2023-09-07T03:30:45.245Z,10.82
2023-09-07T03:32:50.731Z,11.30
2023-09-07T03:34:56.220Z,12.43
2023-09-07T03:37:07.662Z,11.65
2023-09-07T03:39:13.214Z,11.00
2023-09-07T03:41:15.714Z,12.63
2023-09-07T03:43:21.749Z,12.40
2023-09-07T03:45:27.001Z,12.10
2023-09-07T03:47:32.354Z,13.27
2023-09-07T03:49:37.707Z,11.35
2023-09-07T03:51:43.336Z,12.55
2023-09-07T03:53:52.269Z,11.52
2023-09-07T03:56:00.210Z,12.57
2023-09-07T03:58:05.282Z,12.90
2023-09-07T04:00:10.084Z,11.55
2023-09-07T04:02:15.445Z,12.38
2023-09-07T04:04:22.047Z,12.48
2023-09-07T04:06:28.178Z,12.98
2023-09-07T04:08:33.396Z,14.65
2023-09-07T04:10:45.121Z,11.48
2023-09-07T04:12:50.353Z,12.35
2023-09-07T04:14:56.354Z,11.05
2023-09-07T04:17:02.793Z,11.15
2023-09-07T04:19:10.548Z,11.02
2023-09-07T04:21:16.579Z,12.75
2023-09-07T04:23:23.111Z,13.15
2023-09-07T04:25:30.501Z,13.32
2023-09-07T04:27:40.699Z,13.88
2023-09-07T04:29:52.101Z,13.20
2023-09-07T04:31:57.144Z,12.48
2023-09-07T04:34:05.188Z,12.85
2023-09-07T04:36:16.656Z,15.15
2023-09-07T04:38:21.977Z,14.45
2023-09-07T04:40:31.261Z,12.70
2023-09-07T04:42:39.927Z,12.45
2023-09-07T04:44:46.793Z,12.07
2023-09-07T04:46:55.679Z,13.60
2023-09-07T04:49:04.331Z,12.48
2023-09-07T04:51:10.490Z,13.15
2023-09-07T04:53:18.432Z,12.57
2023-09-07T04:55:26.873Z,13.43
2023-09-07T04:57:31.841Z,14.23
2023-09-07T04:59:39.892Z,13.30
2023-09-07T05:01:45.181Z,13.95
2023-09-07T05:03:53.159Z,13.73
2023-09-07T05:06:01.947Z,13.55
2023-09-07T05:08:09.856Z,14.27
2023-09-07T05:10:20.930Z,15.30
2023-09-07T05:12:26.371Z,13.38
2023-09-07T05:14:33.825Z,12.52
2023-09-07T05:18:12.028Z,13.85
2023-09-07T05:20:45.327Z,12.52
2023-09-07T05:23:24.655Z,14.93
2023-09-07T05:26:33.229Z,13.32
2023-09-07T05:28:57.329Z,12.38
2023-09-07T05:33:59.478Z,14.30
2023-09-07T05:36:08.052Z,14.00
2023-09-07T05:38:13.922Z,14.63
2023-09-07T05:40:17.794Z,13.73
2023-09-07T05:42:22.879Z,15.63
2023-09-07T05:44:44.903Z,12.57
2023-09-07T05:46:59.206Z,13.63
2023-09-07T05:49:07.141Z,14.00
2023-09-07T05:51:13.960Z,15.38
2023-09-07T05:53:17.022Z,15.10
2023-09-07T05:55:25.626Z,13.93
2023-09-07T05:57:30.789Z,15.55
2023-09-07T05:59:36.904Z,14.10
2023-09-07T06:01:46.457Z,14.13
2023-09-07T06:03:57.733Z,14.70
2023-09-07T06:06:08.810Z,15.90
2023-09-07T06:08:18.160Z,17.50
2023-09-07T06:10:25.715Z,16.63
2023-09-07T06:12:31.034Z,16.55
2023-09-07T06:14:36.788Z,16.90
2023-09-07T06:16:42.255Z,17.90
2023-09-07T06:18:47.820Z,16.90
2023-09-07T06:21:55.708Z,17.42
2023-09-07T06:24:03.413Z,15.70
2023-09-07T06:26:08.448Z,17.73
2023-09-07T06:28:14.646Z,16.42
2023-09-07T06:30:21.326Z,16.77
2023-09-07T06:32:26.673Z,16.15
2023-09-07T06:34:32.109Z,15.63
2023-09-07T06:36:47.562Z,15.75
2023-09-07T06:38:55.697Z,15.68
2023-09-07T06:41:03.956Z,15.77
2023-09-07T06:43:25.210Z,15.18
2023-09-07T06:45:30.731Z,14.15
2023-09-07T06:47:36.477Z,14.63
2023-09-07T06:49:47.998Z,14.75
2023-09-07T06:51:56.197Z,14.43
2023-09-07T06:54:06.623Z,14.43
2023-09-07T06:56:15.018Z,13.57
2023-09-07T06:58:27.122Z,15.27
2023-09-07T07:00:33.127Z,13.52
2023-09-07T07:02:45.904Z,15.38
2023-09-07T07:04:53.008Z,14.23
2023-09-07T07:07:02.392Z,15.32
2023-09-07T07:09:10.535Z,13.50
2023-09-07T07:11:19.098Z,14.07
2023-09-07T07:13:26.928Z,13.63
2023-09-07T07:15:36.136Z,13.13
2023-09-07T07:17:42.811Z,13.98
2023-09-07T07:19:50.881Z,13.73
2023-09-07T07:21:56.145Z,13.25
2023-09-07T07:24:07.014Z,13.10
2023-09-07T07:26:14.636Z,13.60
2023-09-07T07:28:22.428Z,12.95
2023-09-07T07:30:37.676Z,12.52
2023-09-07T07:32:45.111Z,12.20
2023-09-07T07:34:50.960Z,12.23
2023-09-07T07:36:56.380Z,11.93
2023-09-07T07:39:06.058Z,11.35
2023-09-07T07:41:11.345Z,13.30
2023-09-07T07:43:16.690Z,11.75
2023-09-07T07:45:27.478Z,11.95
2023-09-07T07:47:32.538Z,11.45
2023-09-07T07:49:35.812Z,12.20
2023-09-07T07:51:44.418Z,11.55
2023-09-07T07:53:57.619Z,11.35
2023-09-07T07:56:02.690Z,11.57
2023-09-07T07:58:10.240Z,10.88
2023-09-07T08:00:18.421Z,11.77
2023-09-07T08:02:28.008Z,10.98
2023-09-07T08:04:34.159Z,10.65
2023-09-07T08:06:45.156Z,9.88
2023-09-07T08:09:07.926Z,10.95
2023-09-07T08:11:13.419Z,9.65
2023-09-07T08:13:22.230Z,10.55
2023-09-07T08:15:27.662Z,10.80
2023-09-07T08:17:35.775Z,10.80
2023-09-07T08:19:45.250Z,10.85
2023-09-07T08:21:52.711Z,9.05
2023-09-07T08:24:04.562Z,9.63
2023-09-07T08:26:17.567Z,8.43
2023-09-07T08:28:20.638Z,9.25
2023-09-07T08:30:27.608Z,9.52
2023-09-07T08:32:40.404Z,9.38
2023-09-07T08:36:57.360Z,8.48
2023-09-07T08:39:07.280Z,8.75
2023-09-07T08:41:14.377Z,8.38
2023-09-07T08:43:25.575Z,8.65
2023-09-07T08:45:34.901Z,8.35
2023-09-07T08:47:46.176Z,9.73
2023-09-07T08:49:57.136Z,8.80
2023-09-07T08:52:12.823Z,8.48
2023-09-07T08:54:19.149Z,8.90
2023-09-07T08:56:34.004Z,9.23
2023-09-07T08:58:39.071Z,9.63
2023-09-07T09:00:47.540Z,8.57
2023-09-07T09:03:03.600Z,8.57
2023-09-07T09:05:10.449Z,9.43
2023-09-07T09:07:16.731Z,9.15
2023-09-07T09:09:26.678Z,9.80
2023-09-07T09:11:35.310Z,9.15
2023-09-07T09:13:40.520Z,8.68
2023-09-07T09:15:48.331Z,8.98
2023-09-07T09:18:01.270Z,8.27
2023-09-07T09:20:13.150Z,8.60
2023-09-07T09:22:22.504Z,10.00
2023-09-07T09:24:28.045Z,9.63
2023-09-07T09:26:32.947Z,8.88
2023-09-07T09:28:38.846Z,8.57
2023-09-07T09:30:46.486Z,8.27
2023-09-07T09:32:57.592Z,7.47
2023-09-07T09:35:04.408Z,8.13
2023-09-07T09:37:20.333Z,7.20
2023-09-07T09:39:29.268Z,8.48
2023-09-07T09:41:36.351Z,8.98
2023-09-07T09:43:41.870Z,7.40
2023-09-07T09:45:47.606Z,8.18
2023-09-07T09:48:01.172Z,9.00
2023-09-07T09:50:07.851Z,8.15
2023-09-07T09:52:14.396Z,8.00
2023-09-07T09:54:21.112Z,7.70
2023-09-07T09:56:27.724Z,9.02
2023-09-07T09:58:35.149Z,7.40
2023-09-07T10:00:41.516Z,7.82
2023-09-07T10:02:47.830Z,7.30
2023-09-07T10:04:56.108Z,8.00
2023-09-07T10:07:02.442Z,7.95
2023-09-07T10:09:13.085Z,8.65
2023-09-07T10:11:30.679Z,8.63
2023-09-07T10:13:37.639Z,7.20
2023-09-07T10:15:44.166Z,7.35
2023-09-07T10:17:51.586Z,6.60
2023-09-07T10:20:09.815Z,6.68
2023-09-07T10:22:26.071Z,7.38
2023-09-07T10:24:32.431Z,7.10
2023-09-07T10:26:37.642Z,7.68
2023-09-07T10:28:44.876Z,7.78
2023-09-07T10:30:49.763Z,7.18
2023-09-07T10:32:56.949Z,6.25
2023-09-07T10:35:04.260Z,8.20
2023-09-07T10:37:14.641Z,7.50
2023-09-07T10:39:21.602Z,7.47
2023-09-07T10:41:30.692Z,6.30
2023-09-07T10:43:45.483Z,6.57
2023-09-07T10:45:51.978Z,8.02
2023-09-07T10:47:57.120Z,7.53
2023-09-07T10:50:04.649Z,6.88
2023-09-07T10:52:13.461Z,6.90
2023-09-07T10:54:19.531Z,6.72
2023-09-07T10:56:31.752Z,6.22
2023-09-07T10:58:40.072Z,6.88
2023-09-07T11:00:45.610Z,6.88
2023-09-07T11:02:50.671Z,6.30
2023-09-07T11:04:56.394Z,6.35
2023-09-07T11:07:02.284Z,6.85
2023-09-07T11:09:12.433Z,6.53
2023-09-07T11:11:18.254Z,6.63
2023-09-07T11:13:26.722Z,6.53
2023-09-07T11:15:31.302Z,5.57
2023-09-07T11:17:36.745Z,5.68
2023-09-07T11:19:41.761Z,6.22
2023-09-07T11:21:47.140Z,6.60
2023-09-07T11:23:52.264Z,6.57
2023-09-07T11:26:00.035Z,6.28
2023-09-07T11:28:20.799Z,6.25
2023-09-07T11:30:26.027Z,6.47
2023-09-07T11:32:38.022Z,5.32
2023-09-07T11:34:52.701Z,6.25
2023-09-07T11:37:00.827Z,6.20
2023-09-07T11:39:12.033Z,7.07
2023-09-07T11:41:20.873Z,5.80
2023-09-07T11:43:26.303Z,5.93
2023-09-07T11:45:33.929Z,5.68
2023-09-07T11:47:39.286Z,6.60
2023-09-07T11:49:44.335Z,6.45
2023-09-07T11:51:51.228Z,6.43
2023-09-07T11:53:56.344Z,6.43
2023-09-07T11:56:02.501Z,5.57
2023-09-07T11:58:11.826Z,5.93
2023-09-07T12:00:19.836Z,6.80
2023-09-07T12:02:28.619Z,6.60
2023-09-07T12:04:34.850Z,6.28
2023-09-07T12:06:44.757Z,5.93
2023-09-07T12:09:03.141Z,5.95
2023-09-07T12:11:09.645Z,6.13
2023-09-07T12:13:17.541Z,7.22
2023-09-07T12:15:22.804Z,6.55
2023-09-07T12:17:26.554Z,7.07
2023-09-07T12:19:32.029Z,6.88
2023-09-07T12:21:37.105Z,7.35
2023-09-07T12:23:43.333Z,6.35
2023-09-07T12:25:52.540Z,6.78
2023-09-07T12:28:00.961Z,7.00
2023-09-07T12:30:13.935Z,6.85
2023-09-07T12:32:22.902Z,7.18
2023-09-07T12:34:32.317Z,7.13
2023-09-07T12:36:39.300Z,7.00
2023-09-07T12:38:44.710Z,7.25
2023-09-07T12:40:50.138Z,8.00
2023-09-07T12:42:56.141Z,7.50
2023-09-07T12:44:58.852Z,7.05
2023-09-07T12:47:06.643Z,7.72
2023-09-07T12:49:11.920Z,7.82
2023-09-07T12:51:17.514Z,6.90
2023-09-07T12:53:26.107Z,7.80
2023-09-07T12:55:31.499Z,7.70
2023-09-07T12:57:37.456Z,7.20
2023-09-07T12:59:45.348Z,7.38
2023-09-07T13:01:56.737Z,7.35
2023-09-07T13:04:04.502Z,7.57
2023-09-07T13:06:09.668Z,7.70
2023-09-07T13:08:15.228Z,7.38
2023-09-07T13:10:20.173Z,7.20
2023-09-07T13:12:27.313Z,7.70
2023-09-07T13:14:34.669Z,7.18
2023-09-07T13:16:45.266Z,7.03
2023-09-07T13:18:52.961Z,7.30
2023-09-07T13:21:03.372Z,7.63
2023-09-07T13:23:08.684Z,6.90
2023-09-07T13:25:14.181Z,7.07
2023-09-07T13:27:19.715Z,7.10
2023-09-07T13:29:26.222Z,6.18
2023-09-07T13:31:34.714Z,7.05
2023-09-07T13:33:45.180Z,6.78
2023-09-07T13:35:50.121Z,6.95
2023-09-07T13:38:06.314Z,7.15
2023-09-07T13:40:13.076Z,7.38
2023-09-07T13:42:18.947Z,7.15
2023-09-07T13:44:27.127Z,6.32
2023-09-07T13:46:34.872Z,6.88
2023-09-07T13:48:42.962Z,5.85
2023-09-07T13:50:50.323Z,6.80
2023-09-07T13:53:00.275Z,6.38
2023-09-07T13:55:06.635Z,6.32
2023-09-07T13:57:18.431Z,6.15
2023-09-07T13:59:23.593Z,6.05
2023-09-07T14:01:33.230Z,5.72
2023-09-07T14:03:39.326Z,6.40
2023-09-07T14:05:44.289Z,5.53
2023-09-07T14:07:49.772Z,5.65
2023-09-07T14:10:00.638Z,4.93
2023-09-07T14:12:05.846Z,5.93
2023-09-07T14:14:11.251Z,6.03
2023-09-07T14:16:17.584Z,6.22
2023-09-07T14:18:22.626Z,5.47
2023-09-07T14:20:27.908Z,5.47
2023-09-07T14:22:30.585Z,5.78
2023-09-07T14:24:35.642Z,6.57
2023-09-07T14:26:43.442Z,5.70
2023-09-07T14:28:48.554Z,5.65
2023-09-07T14:30:56.269Z,5.80
2023-09-07T14:33:01.622Z,5.53
2023-09-07T14:35:07.498Z,5.72
2023-09-07T14:37:12.690Z,5.28
2023-09-07T14:39:26.764Z,5.63
2023-09-07T14:41:32.476Z,5.40
2023-09-07T14:43:42.425Z,5.88
2023-09-07T14:45:48.404Z,5.45
2023-09-07T14:47:53.805Z,5.25
2023-09-07T14:49:59.721Z,5.40
2023-09-07T14:52:04.791Z,6.18
2023-09-07T14:54:10.064Z,4.95
2023-09-07T14:56:16.157Z,5.22
2023-09-07T14:58:21.489Z,5.35
2023-09-07T15:00:35.520Z,5.63
2023-09-07T15:02:40.883Z,5.32
2023-09-07T15:04:47.228Z,5.32
2023-09-07T15:06:52.433Z,5.30
2023-09-07T15:09:00.227Z,5.10
2023-09-07T15:11:05.288Z,5.15
2023-09-07T15:13:11.604Z,5.00
2023-09-07T15:15:19.929Z,5.28
2023-09-07T15:17:32.386Z,5.90
2023-09-07T15:19:37.880Z,5.78
2023-09-07T15:21:43.021Z,5.35
2023-09-07T15:23:49.720Z,5.13
2023-09-07T15:25:59.447Z,5.72
2023-09-07T15:28:09.971Z,5.50
2023-09-07T15:30:16.480Z,5.38
2023-09-07T15:32:23.410Z,6.20
2023-09-07T15:34:34.935Z,4.95
2023-09-07T15:36:45.167Z,5.00
2023-09-07T15:38:52.731Z,5.63
2023-09-07T15:40:58.732Z,5.40
2023-09-07T15:43:07.474Z,5.57
2023-09-07T15:45:13.731Z,5.20
2023-09-07T15:47:19.628Z,5.22
2023-09-07T15:49:28.412Z,5.90
2023-09-07T15:51:42.613Z,5.35
2023-09-07T15:53:50.005Z,5.55
2023-09-07T15:56:10.877Z,5.40
2023-09-07T15:58:30.095Z,5.00
2023-09-07T16:00:36.752Z,5.10
2023-09-07T16:02:44.868Z,5.15
2023-09-07T16:04:50.115Z,5.45
2023-09-07T16:07:00.899Z,5.85
2023-09-07T16:09:06.900Z,5.53
2023-09-07T16:11:14.137Z,5.22
2023-09-07T16:13:19.239Z,5.70
2023-09-07T16:15:27.228Z,5.30
2023-09-07T16:17:35.922Z,5.50
2023-09-07T16:19:46.602Z,5.85
2023-09-07T16:21:55.676Z,5.25
2023-09-07T16:24:03.444Z,6.28
2023-09-07T16:26:09.108Z,6.03
2023-09-07T16:28:14.356Z,4.90
2023-09-07T16:30:19.273Z,5.60
2023-09-07T16:32:24.543Z,6.00
2023-09-07T16:34:30.443Z,5.50
2023-09-07T16:36:48.493Z,5.20
2023-09-07T16:38:54.671Z,5.55
2023-09-07T16:41:07.664Z,5.50
2023-09-07T16:43:13.768Z,5.45
2023-09-07T16:45:18.955Z,5.97
2023-09-07T16:47:26.870Z,5.25
2023-09-07T16:49:32.032Z,5.28
2023-09-07T16:51:37.077Z,5.90
2023-09-07T16:53:44.109Z,5.78
2023-09-07T16:55:46.476Z,5.90
2023-09-07T17:00:01.710Z,5.03
2023-09-07T17:02:10.117Z,5.53
2023-09-07T17:04:19.224Z,5.57
2023-09-07T17:06:35.619Z,5.25
2023-09-07T17:08:41.045Z,5.57
2023-09-07T17:10:47.288Z,5.50
2023-09-07T17:12:57.432Z,5.65
2023-09-07T17:15:02.891Z,5.20
2023-09-07T17:17:09.195Z,5.35
2023-09-07T17:19:16.234Z,5.35
2023-09-07T17:21:25.932Z,4.72
2023-09-07T17:23:36.829Z,5.20
2023-09-07T17:25:43.016Z,5.13
2023-09-07T17:27:49.156Z,5.65
2023-09-07T17:30:00.359Z,5.85
2023-09-07T17:32:05.703Z,4.90
2023-09-07T17:34:13.221Z,5.82
2023-09-07T17:36:17.279Z,5.38
2023-09-07T17:38:22.433Z,5.68
2023-09-07T17:40:27.759Z,5.55
2023-09-07T17:42:31.419Z,5.15
2023-09-07T17:44:36.657Z,6.15
2023-09-07T17:46:44.770Z,7.05
2023-09-07T17:48:52.795Z,5.43
2023-09-07T17:50:59.996Z,5.93
2023-09-07T17:53:05.114Z,5.35
2023-09-07T17:55:11.203Z,5.45
2023-09-07T17:57:13.581Z,6.00
2023-09-07T18:01:23.923Z,5.60
2023-09-07T18:03:35.198Z,5.57
2023-09-07T18:05:40.367Z,5.72
2023-09-07T18:07:46.817Z,5.72
2023-09-07T18:09:52.141Z,5.82
2023-09-07T18:12:00.361Z,5.80
2023-09-07T18:14:12.969Z,5.30
2023-09-07T18:16:18.729Z,6.22
2023-09-07T18:18:23.941Z,5.63
2023-09-07T18:20:32.870Z,5.65
2023-09-07T18:22:42.926Z,5.57
2023-09-07T18:24:50.850Z,5.38
2023-09-07T18:26:58.639Z,5.78
2023-09-07T18:29:07.453Z,5.78
2023-09-07T18:31:10.046Z,5.80
2023-09-07T18:33:18.061Z,5.72
2023-09-07T18:35:23.170Z,6.22
2023-09-07T18:37:33.641Z,6.32
2023-09-07T18:39:38.951Z,6.05
2023-09-07T18:41:47.052Z,6.15
2023-09-07T18:43:53.288Z,6.20
2023-09-07T18:46:00.900Z,5.53
2023-09-07T18:48:06.213Z,6.18
2023-09-07T18:50:13.583Z,6.20
2023-09-07T18:52:18.886Z,6.70
2023-09-07T18:54:25.935Z,6.95
2023-09-07T18:56:30.903Z,6.40
2023-09-07T18:58:36.780Z,6.63
2023-09-07T19:00:43.940Z,6.70
2023-09-07T19:02:51.675Z,6.00
2023-09-07T19:04:59.173Z,6.15
2023-09-07T19:07:07.609Z,5.75
2023-09-07T19:09:11.645Z,5.90
2023-09-07T19:11:21.531Z,6.63
2023-09-07T19:13:26.791Z,6.47
2023-09-07T19:15:45.237Z,6.90
2023-09-07T19:17:50.221Z,6.72
2023-09-07T19:19:59.205Z,6.38
2023-09-07T19:22:04.149Z,7.80
2023-09-07T19:24:15.485Z,7.22
2023-09-07T19:26:33.828Z,6.95
2023-09-07T19:28:38.871Z,6.95
2023-09-07T19:30:47.212Z,7.00
2023-09-07T19:32:52.713Z,6.93
2023-09-07T19:34:58.096Z,7.55
2023-09-07T19:37:03.983Z,7.53
2023-09-07T19:39:12.268Z,7.93
2023-09-07T19:41:14.715Z,7.53
2023-09-07T19:43:22.442Z,7.97
2023-09-07T19:45:33.962Z,7.15
2023-09-07T19:47:38.949Z,7.35
2023-09-07T19:49:42.783Z,7.40
2023-09-07T19:51:47.741Z,6.97
2023-09-07T19:53:50.563Z,8.07
2023-09-07T19:55:56.253Z,8.00
2023-09-07T19:58:01.222Z,8.75
2023-09-07T20:00:10.419Z,8.18
2023-09-07T20:02:15.930Z,8.25
2023-09-07T20:04:18.512Z,8.35
2023-09-07T20:08:43.766Z,9.10
2023-09-07T20:10:48.879Z,9.50
2023-09-07T20:12:58.863Z,8.52
2023-09-07T20:15:04.265Z,8.82
2023-09-07T20:17:13.154Z,9.00
2023-09-07T20:19:18.679Z,10.00
2023-09-07T20:21:23.953Z,10.02
2023-09-07T20:23:35.376Z,10.18
2023-09-07T20:25:41.160Z,10.10
2023-09-07T20:27:46.232Z,10.57
2023-09-07T20:29:51.549Z,11.55
2023-09-07T20:31:56.667Z,12.55
2023-09-07T20:34:04.903Z,13.80
2023-09-07T20:36:08.440Z,14.07
2023-09-07T20:38:13.765Z,12.38
2023-09-07T20:40:19.220Z,12.25
2023-09-07T20:42:26.445Z,11.73
2023-09-07T20:44:32.960Z,11.70
2023-09-07T20:46:56.388Z,11.27
2023-09-07T20:49:06.384Z,11.35
2023-09-07T20:51:15.828Z,13.80
2023-09-07T20:53:22.170Z,12.02
2023-09-07T20:55:27.331Z,14.85
2023-09-07T20:57:32.262Z,13.27
2023-09-07T20:59:39.056Z,12.73
2023-09-07T21:01:46.247Z,12.48
2023-09-07T21:03:52.846Z,14.57
2023-09-07T21:06:00.637Z,13.20
2023-09-07T21:08:07.470Z,13.25
2023-09-07T21:10:13.834Z,12.23
2023-09-07T21:12:18.957Z,13.43
2023-09-07T21:14:24.636Z,14.88
2023-09-07T21:16:33.053Z,16.27
2023-09-07T21:18:38.451Z,14.88
2023-09-07T21:20:50.928Z,13.82
2023-09-07T21:23:02.087Z,15.27
2023-09-07T21:25:09.187Z,13.85
2023-09-07T21:27:18.390Z,13.20
2023-09-07T21:29:25.935Z,13.32
2023-09-07T21:31:32.850Z,14.38
2023-09-07T21:33:38.532Z,14.48
2023-09-07T21:35:44.688Z,13.57
2023-09-07T21:37:50.003Z,14.73
2023-09-07T21:40:01.141Z,13.88
2023-09-07T21:42:06.726Z,15.32
2023-09-07T21:44:12.071Z,15.15
2023-09-07T21:46:17.301Z,13.85
2023-09-07T21:48:22.649Z,16.38
2023-09-07T21:50:30.565Z,16.35
2023-09-07T21:52:35.555Z,16.50
2023-09-07T21:54:40.651Z,15.85
2023-09-07T21:56:48.404Z,14.27
2023-09-07T21:58:54.579Z,13.50
2023-09-07T22:00:59.837Z,14.73
2023-09-07T22:03:05.247Z,15.27
2023-09-07T22:05:11.528Z,13.68
2023-09-07T22:07:16.853Z,16.23
2023-09-07T22:09:22.011Z,16.42
2023-09-07T22:11:27.674Z,16.38
2023-09-07T22:13:35.616Z,15.05
2023-09-07T22:15:40.688Z,15.25
2023-09-07T22:17:48.680Z,16.00
2023-09-07T22:19:54.714Z,15.85
2023-09-07T22:21:57.220Z,16.13
2023-09-07T22:24:02.593Z,19.17
2023-09-07T22:26:05.103Z,16.17
2023-09-07T22:28:10.960Z,18.35
2023-09-07T22:30:19.476Z,15.60
2023-09-07T22:32:27.241Z,16.00
2023-09-07T22:34:33.226Z,15.73
2023-09-07T22:36:38.367Z,16.40
2023-09-07T22:38:46.428Z,18.10
2023-09-07T22:40:51.900Z,17.08
2023-09-07T22:42:56.921Z,18.58
2023-09-07T22:45:02.068Z,22.27
2023-09-07T22:47:09.877Z,21.63
2023-09-07T22:49:18.525Z,19.70
2023-09-07T22:51:26.700Z,19.80
2023-09-07T22:53:32.646Z,19.33
2023-09-07T22:55:47.155Z,19.40
2023-09-07T22:57:54.728Z,22.08
2023-09-07T23:00:00.813Z,18.58
2023-09-07T23:02:03.649Z,19.45
2023-09-07T23:04:11.883Z,18.75
2023-09-07T23:06:17.353Z,21.70
2023-09-07T23:08:20.141Z,19.42
2023-09-07T23:10:27.127Z,23.67
2023-09-07T23:12:32.314Z,19.77
2023-09-07T23:14:37.410Z,20.77
2023-09-07T23:16:42.674Z,19.63
2023-09-07T23:18:47.812Z,19.15
2023-09-07T23:21:01.003Z,20.65
2023-09-07T23:23:06.129Z,20.10
2023-09-07T23:25:12.649Z,21.38
2023-09-07T23:27:15.328Z,21.27
2023-09-07T23:31:26.647Z,20.42
2023-09-07T23:33:32.418Z,20.95
2023-09-07T23:35:37.480Z,21.45
2023-09-07T23:37:47.913Z,22.23
2023-09-07T23:39:53.020Z,20.92
2023-09-07T23:42:01.266Z,22.50
2023-09-07T23:44:06.576Z,21.20
2023-09-07T23:46:12.577Z,22.25
2023-09-07T23:48:18.087Z,20.77
2023-09-07T23:50:23.268Z,22.80
2023-09-07T23:52:32.060Z,21.58
2023-09-07T23:54:39.669Z,21.30
2023-09-07T23:56:44.905Z,23.48
2023-09-07T23:58:50.024Z,24.25
